sensor_id;sensor_type;location;lat;lon;timestamp;P1;durP1;ratioP1;P2;durP2;ratioP2
44328;SDS011;30039;51.462;6.892;2022-12-29T00:00:03;1.20;;;0.73;;
44328;SDS011;30039;51.462;6.892;2022-12-29T00:02:50;1.33;;;0.70;;
44328;SDS011;30039;51.462;6.892;2022-12-29T00:05:35;1.08;;;0.73;;
44328;SDS011;30039;51.462;6.892;2022-12-29T00:08:21;0.90;;;0.70;;
44328;SDS011;30039;51.462;6.892;2022-12-29T00:11:25;1.10;;;0.70;;
44328;SDS011;30039;51.462;6.892;2022-12-29T00:14:11;0.70;;;0.70;;
44328;SDS011;30039;51.462;6.892;2022-12-29T00:17:16;0.93;;;0.70;;
44328;SDS011;30039;51.462;6.892;2022-12-29T00:20:02;1.83;;;0.90;;
44328;SDS011;30039;51.462;6.892;2022-12-29T00:23:08;3.00;;;0.97;;
44328;SDS011;30039;51.462;6.892;2022-12-29T00:26:13;1.00;;;0.70;;
44328;SDS011;30039;51.462;6.892;2022-12-29T00:29:18;2.42;;;0.70;;
44328;SDS011;30039;51.462;6.892;2022-12-29T00:32:23;1.23;;;0.80;;
44328;SDS011;30039;51.462;6.892;2022-12-29T00:35:38;0.97;;;0.70;;
44328;SDS011;30039;51.462;6.892;2022-12-29T00:38:25;1.13;;;0.80;;
44328;SDS011;30039;51.462;6.892;2022-12-29T00:44:34;0.75;;;0.70;;
44328;SDS011;30039;51.462;6.892;2022-12-29T00:47:20;1.42;;;0.80;;
44328;SDS011;30039;51.462;6.892;2022-12-29T00:50:07;1.63;;;1.00;;
44328;SDS011;30039;51.462;6.892;2022-12-29T00:52:53;1.52;;;0.90;;
44328;SDS011;30039;51.462;6.892;2022-12-29T00:55:39;0.95;;;0.70;;
44328;SDS011;30039;51.462;6.892;2022-12-29T00:58:29;2.08;;;0.90;;
44328;SDS011;30039;51.462;6.892;2022-12-29T01:01:16;1.13;;;0.70;;
44328;SDS011;30039;51.462;6.892;2022-12-29T01:04:04;1.17;;;0.70;;
44328;SDS011;30039;51.462;6.892;2022-12-29T01:06:52;1.70;;;0.90;;
44328;SDS011;30039;51.462;6.892;2022-12-29T01:09:39;0.85;;;0.70;;
44328;SDS011;30039;51.462;6.892;2022-12-29T01:12:44;1.33;;;0.88;;
44328;SDS011;30039;51.462;6.892;2022-12-29T01:15:30;1.45;;;0.70;;
44328;SDS011;30039;51.462;6.892;2022-12-29T01:18:16;0.90;;;0.60;;
44328;SDS011;30039;51.462;6.892;2022-12-29T01:21:05;0.68;;;0.50;;
44328;SDS011;30039;51.462;6.892;2022-12-29T01:23:51;0.63;;;0.50;;
44328;SDS011;30039;51.462;6.892;2022-12-29T01:26:38;0.60;;;0.50;;
44328;SDS011;30039;51.462;6.892;2022-12-29T01:29:26;0.93;;;0.60;;
44328;SDS011;30039;51.462;6.892;2022-12-29T01:32:12;1.48;;;0.40;;
44328;SDS011;30039;51.462;6.892;2022-12-29T01:34:57;0.35;;;0.35;;
44328;SDS011;30039;51.462;6.892;2022-12-29T01:37:43;0.40;;;0.40;;
44328;SDS011;30039;51.462;6.892;2022-12-29T01:40:29;0.35;;;0.30;;
44328;SDS011;30039;51.462;6.892;2022-12-29T01:43:15;2.40;;;0.52;;
44328;SDS011;30039;51.462;6.892;2022-12-29T01:46:00;0.57;;;0.50;;
44328;SDS011;30039;51.462;6.892;2022-12-29T01:48:47;3.28;;;1.08;;
44328;SDS011;30039;51.462;6.892;2022-12-29T01:51:45;1.00;;;0.57;;
44328;SDS011;30039;51.462;6.892;2022-12-29T01:54:38;1.48;;;0.50;;
44328;SDS011;30039;51.462;6.892;2022-12-29T01:57:27;0.40;;;0.40;;
44328;SDS011;30039;51.462;6.892;2022-12-29T02:00:13;0.30;;;0.30;;
44328;SDS011;30039;51.462;6.892;2022-12-29T02:02:59;0.45;;;0.40;;
44328;SDS011;30039;51.462;6.892;2022-12-29T02:05:50;0.40;;;0.40;;
44328;SDS011;30039;51.462;6.892;2022-12-29T02:08:36;0.40;;;0.40;;
44328;SDS011;30039;51.462;6.892;2022-12-29T02:11:23;0.40;;;0.40;;
44328;SDS011;30039;51.462;6.892;2022-12-29T02:14:10;1.83;;;0.60;;
44328;SDS011;30039;51.462;6.892;2022-12-29T02:31:58;1.13;;;0.50;;
44328;SDS011;30039;51.462;6.892;2022-12-29T02:40:48;0.47;;;0.47;;
44328;SDS011;30039;51.462;6.892;2022-12-29T02:46:33;1.02;;;0.50;;
44328;SDS011;30039;51.462;6.892;2022-12-29T02:49:22;0.50;;;0.50;;
44328;SDS011;30039;51.462;6.892;2022-12-29T02:52:18;0.75;;;0.60;;
44328;SDS011;30039;51.462;6.892;2022-12-29T02:55:04;1.38;;;0.85;;
44328;SDS011;30039;51.462;6.892;2022-12-29T03:04:03;2.00;;;0.85;;
44328;SDS011;30039;51.462;6.892;2022-12-29T03:07:11;2.83;;;0.60;;
44328;SDS011;30039;51.462;6.892;2022-12-29T03:13:20;3.58;;;0.82;;
44328;SDS011;30039;51.462;6.892;2022-12-29T03:16:34;0.50;;;0.50;;
44328;SDS011;30039;51.462;6.892;2022-12-29T03:22:10;1.10;;;0.60;;
44328;SDS011;30039;51.462;6.892;2022-12-29T03:25:18;0.68;;;0.57;;
44328;SDS011;30039;51.462;6.892;2022-12-29T03:28:11;0.77;;;0.52;;
44328;SDS011;30039;51.462;6.892;2022-12-29T03:30:58;2.95;;;0.85;;
44328;SDS011;30039;51.462;6.892;2022-12-29T03:33:45;1.00;;;0.70;;
44328;SDS011;30039;51.462;6.892;2022-12-29T03:36:35;1.48;;;0.70;;
44328;SDS011;30039;51.462;6.892;2022-12-29T03:39:24;1.38;;;0.75;;
44328;SDS011;30039;51.462;6.892;2022-12-29T03:42:30;1.42;;;0.50;;
44328;SDS011;30039;51.462;6.892;2022-12-29T03:45:18;1.67;;;0.73;;
44328;SDS011;30039;51.462;6.892;2022-12-29T03:48:05;0.93;;;0.50;;
44328;SDS011;30039;51.462;6.892;2022-12-29T03:50:53;0.85;;;0.60;;
44328;SDS011;30039;51.462;6.892;2022-12-29T03:53:39;1.65;;;0.65;;
44328;SDS011;30039;51.462;6.892;2022-12-29T03:56:24;1.95;;;0.70;;
44328;SDS011;30039;51.462;6.892;2022-12-29T03:59:10;1.35;;;0.60;;
44328;SDS011;30039;51.462;6.892;2022-12-29T04:01:57;2.50;;;1.02;;
44328;SDS011;30039;51.462;6.892;2022-12-29T04:04:46;1.08;;;0.70;;
44328;SDS011;30039;51.462;6.892;2022-12-29T04:07:32;2.33;;;0.70;;
44328;SDS011;30039;51.462;6.892;2022-12-29T04:10:18;1.50;;;0.60;;
44328;SDS011;30039;51.462;6.892;2022-12-29T04:13:03;0.40;;;0.40;;
44328;SDS011;30039;51.462;6.892;2022-12-29T04:15:50;0.60;;;0.50;;
44328;SDS011;30039;51.462;6.892;2022-12-29T04:18:37;0.95;;;0.43;;
44328;SDS011;30039;51.462;6.892;2022-12-29T04:21:24;0.85;;;0.50;;
44328;SDS011;30039;51.462;6.892;2022-12-29T04:24:11;1.63;;;0.60;;
44328;SDS011;30039;51.462;6.892;2022-12-29T04:26:58;1.17;;;0.38;;
44328;SDS011;30039;51.462;6.892;2022-12-29T04:29:44;0.43;;;0.40;;
44328;SDS011;30039;51.462;6.892;2022-12-29T04:32:30;2.05;;;0.45;;
44328;SDS011;30039;51.462;6.892;2022-12-29T04:35:15;0.35;;;0.35;;
44328;SDS011;30039;51.462;6.892;2022-12-29T04:38:02;0.65;;;0.32;;
44328;SDS011;30039;51.462;6.892;2022-12-29T04:40:48;1.25;;;0.50;;
44328;SDS011;30039;51.462;6.892;2022-12-29T04:43:34;2.47;;;0.68;;
44328;SDS011;30039;51.462;6.892;2022-12-29T04:46:21;1.17;;;0.70;;
44328;SDS011;30039;51.462;6.892;2022-12-29T04:49:07;2.00;;;0.65;;
44328;SDS011;30039;51.462;6.892;2022-12-29T04:51:54;1.75;;;0.70;;
44328;SDS011;30039;51.462;6.892;2022-12-29T04:54:40;1.38;;;0.70;;
44328;SDS011;30039;51.462;6.892;2022-12-29T04:57:26;0.73;;;0.52;;
44328;SDS011;30039;51.462;6.892;2022-12-29T05:00:14;1.00;;;0.52;;
44328;SDS011;30039;51.462;6.892;2022-12-29T05:03:00;1.13;;;0.50;;
44328;SDS011;30039;51.462;6.892;2022-12-29T05:05:45;0.93;;;0.52;;
44328;SDS011;30039;51.462;6.892;2022-12-29T05:08:31;2.95;;;0.70;;
44328;SDS011;30039;51.462;6.892;2022-12-29T05:11:17;1.77;;;0.73;;
44328;SDS011;30039;51.462;6.892;2022-12-29T05:14:03;2.42;;;0.50;;
44328;SDS011;30039;51.462;6.892;2022-12-29T05:16:49;0.80;;;0.52;;
44328;SDS011;30039;51.462;6.892;2022-12-29T05:19:35;1.77;;;0.73;;
44328;SDS011;30039;51.462;6.892;2022-12-29T05:22:21;1.00;;;0.80;;
44328;SDS011;30039;51.462;6.892;2022-12-29T05:25:07;2.05;;;0.65;;
44328;SDS011;30039;51.462;6.892;2022-12-29T05:27:53;1.15;;;0.47;;
44328;SDS011;30039;51.462;6.892;2022-12-29T05:30:39;1.73;;;0.52;;
44328;SDS011;30039;51.462;6.892;2022-12-29T05:33:25;1.38;;;0.65;;
44328;SDS011;30039;51.462;6.892;2022-12-29T05:36:10;1.55;;;0.65;;
44328;SDS011;30039;51.462;6.892;2022-12-29T05:38:57;2.15;;;0.73;;
44328;SDS011;30039;51.462;6.892;2022-12-29T05:41:42;0.90;;;0.57;;
44328;SDS011;30039;51.462;6.892;2022-12-29T05:44:28;1.55;;;0.70;;
44328;SDS011;30039;51.462;6.892;2022-12-29T05:47:16;1.48;;;0.93;;
44328;SDS011;30039;51.462;6.892;2022-12-29T05:50:02;1.95;;;0.60;;
44328;SDS011;30039;51.462;6.892;2022-12-29T05:52:47;3.50;;;0.98;;
44328;SDS011;30039;51.462;6.892;2022-12-29T05:55:33;1.83;;;1.00;;
44328;SDS011;30039;51.462;6.892;2022-12-29T05:58:19;2.70;;;0.88;;
44328;SDS011;30039;51.462;6.892;2022-12-29T06:01:05;0.57;;;0.40;;
44328;SDS011;30039;51.462;6.892;2022-12-29T06:03:51;5.50;;;0.70;;
44328;SDS011;30039;51.462;6.892;2022-12-29T06:06:37;1.48;;;0.50;;
44328;SDS011;30039;51.462;6.892;2022-12-29T06:09:26;1.33;;;0.55;;
44328;SDS011;30039;51.462;6.892;2022-12-29T06:12:12;1.80;;;0.98;;
44328;SDS011;30039;51.462;6.892;2022-12-29T06:14:58;1.67;;;0.70;;
44328;SDS011;30039;51.462;6.892;2022-12-29T06:17:43;1.27;;;0.73;;
44328;SDS011;30039;51.462;6.892;2022-12-29T06:20:29;5.00;;;1.05;;
44328;SDS011;30039;51.462;6.892;2022-12-29T06:23:15;2.78;;;1.00;;
44328;SDS011;30039;51.462;6.892;2022-12-29T06:26:01;3.05;;;1.20;;
44328;SDS011;30039;51.462;6.892;2022-12-29T06:28:47;2.42;;;1.00;;
44328;SDS011;30039;51.462;6.892;2022-12-29T06:31:34;1.77;;;0.70;;
44328;SDS011;30039;51.462;6.892;2022-12-29T06:34:20;2.28;;;0.82;;
44328;SDS011;30039;51.462;6.892;2022-12-29T06:37:05;2.72;;;0.80;;
44328;SDS011;30039;51.462;6.892;2022-12-29T06:39:52;2.95;;;0.85;;
44328;SDS011;30039;51.462;6.892;2022-12-29T06:42:38;2.42;;;0.90;;
44328;SDS011;30039;51.462;6.892;2022-12-29T06:45:23;1.95;;;0.80;;
44328;SDS011;30039;51.462;6.892;2022-12-29T06:48:09;2.53;;;0.93;;
44328;SDS011;30039;51.462;6.892;2022-12-29T06:50:55;4.45;;;0.80;;
44328;SDS011;30039;51.462;6.892;2022-12-29T06:53:41;2.47;;;1.00;;
44328;SDS011;30039;51.462;6.892;2022-12-29T06:56:26;1.35;;;0.80;;
44328;SDS011;30039;51.462;6.892;2022-12-29T06:59:12;2.05;;;1.20;;
44328;SDS011;30039;51.462;6.892;2022-12-29T07:01:58;2.58;;;1.10;;
44328;SDS011;30039;51.462;6.892;2022-12-29T07:04:43;3.88;;;1.00;;
44328;SDS011;30039;51.462;6.892;2022-12-29T07:07:29;3.70;;;1.10;;
44328;SDS011;30039;51.462;6.892;2022-12-29T07:10:15;3.50;;;0.93;;
44328;SDS011;30039;51.462;6.892;2022-12-29T07:13:01;2.83;;;0.68;;
44328;SDS011;30039;51.462;6.892;2022-12-29T07:15:46;2.53;;;0.80;;
44328;SDS011;30039;51.462;6.892;2022-12-29T07:18:32;7.25;;;0.93;;
44328;SDS011;30039;51.462;6.892;2022-12-29T07:21:18;2.00;;;0.88;;
44328;SDS011;30039;51.462;6.892;2022-12-29T07:24:07;3.97;;;0.80;;
44328;SDS011;30039;51.462;6.892;2022-12-29T07:26:53;3.47;;;0.60;;
44328;SDS011;30039;51.462;6.892;2022-12-29T07:29:38;1.52;;;0.52;;
44328;SDS011;30039;51.462;6.892;2022-12-29T07:32:24;2.17;;;1.15;;
44328;SDS011;30039;51.462;6.892;2022-12-29T07:35:10;4.75;;;0.98;;
44328;SDS011;30039;51.462;6.892;2022-12-29T07:37:55;2.78;;;1.00;;
44328;SDS011;30039;51.462;6.892;2022-12-29T07:40:41;6.13;;;1.02;;
44328;SDS011;30039;51.462;6.892;2022-12-29T07:43:28;2.53;;;0.77;;
44328;SDS011;30039;51.462;6.892;2022-12-29T07:46:14;3.60;;;1.05;;
44328;SDS011;30039;51.462;6.892;2022-12-29T07:49:00;4.13;;;0.90;;
44328;SDS011;30039;51.462;6.892;2022-12-29T07:51:45;2.40;;;1.17;;
44328;SDS011;30039;51.462;6.892;2022-12-29T07:54:31;4.72;;;1.35;;
44328;SDS011;30039;51.462;6.892;2022-12-29T07:57:17;4.00;;;1.02;;
44328;SDS011;30039;51.462;6.892;2022-12-29T08:00:03;3.30;;;1.00;;
44328;SDS011;30039;51.462;6.892;2022-12-29T08:02:49;4.03;;;1.17;;
44328;SDS011;30039;51.462;6.892;2022-12-29T08:05:35;6.70;;;1.30;;
44328;SDS011;30039;51.462;6.892;2022-12-29T08:08:21;7.00;;;1.42;;
44328;SDS011;30039;51.462;6.892;2022-12-29T08:11:06;3.47;;;1.20;;
44328;SDS011;30039;51.462;6.892;2022-12-29T08:13:52;3.97;;;1.13;;
44328;SDS011;30039;51.462;6.892;2022-12-29T08:16:38;3.17;;;1.10;;
44328;SDS011;30039;51.462;6.892;2022-12-29T08:19:24;7.25;;;1.38;;
44328;SDS011;30039;51.462;6.892;2022-12-29T08:22:10;6.38;;;1.50;;
44328;SDS011;30039;51.462;6.892;2022-12-29T08:24:56;3.67;;;1.50;;
44328;SDS011;30039;51.462;6.892;2022-12-29T08:27:42;4.45;;;1.38;;
44328;SDS011;30039;51.462;6.892;2022-12-29T08:30:28;3.35;;;1.20;;
44328;SDS011;30039;51.462;6.892;2022-12-29T08:33:14;5.18;;;0.90;;
44328;SDS011;30039;51.462;6.892;2022-12-29T08:36:01;5.28;;;1.08;;
44328;SDS011;30039;51.462;6.892;2022-12-29T08:38:48;4.53;;;1.52;;
44328;SDS011;30039;51.462;6.892;2022-12-29T08:41:34;6.57;;;2.03;;
44328;SDS011;30039;51.462;6.892;2022-12-29T08:44:20;3.85;;;1.50;;
44328;SDS011;30039;51.462;6.892;2022-12-29T08:47:05;6.80;;;1.55;;
44328;SDS011;30039;51.462;6.892;2022-12-29T08:49:51;7.70;;;1.80;;
44328;SDS011;30039;51.462;6.892;2022-12-29T08:52:37;8.30;;;1.10;;
44328;SDS011;30039;51.462;6.892;2022-12-29T08:55:23;2.95;;;0.80;;
44328;SDS011;30039;51.462;6.892;2022-12-29T08:58:09;4.75;;;1.05;;
44328;SDS011;30039;51.462;6.892;2022-12-29T09:00:59;6.50;;;0.98;;
44328;SDS011;30039;51.462;6.892;2022-12-29T09:03:45;2.85;;;0.82;;
44328;SDS011;30039;51.462;6.892;2022-12-29T09:06:35;5.30;;;1.23;;
44328;SDS011;30039;51.462;6.892;2022-12-29T09:09:21;5.18;;;1.35;;
44328;SDS011;30039;51.462;6.892;2022-12-29T09:12:07;4.78;;;1.17;;
44328;SDS011;30039;51.462;6.892;2022-12-29T09:14:52;6.13;;;1.40;;
44328;SDS011;30039;51.462;6.892;2022-12-29T09:17:38;2.25;;;0.95;;
44328;SDS011;30039;51.462;6.892;2022-12-29T09:20:30;4.25;;;1.00;;
44328;SDS011;30039;51.462;6.892;2022-12-29T09:23:16;5.53;;;1.00;;
44328;SDS011;30039;51.462;6.892;2022-12-29T09:26:02;4.55;;;0.85;;
44328;SDS011;30039;51.462;6.892;2022-12-29T09:28:48;2.40;;;0.80;;
44328;SDS011;30039;51.462;6.892;2022-12-29T09:31:33;6.38;;;1.02;;
44328;SDS011;30039;51.462;6.892;2022-12-29T09:34:20;2.38;;;0.73;;
44328;SDS011;30039;51.462;6.892;2022-12-29T09:37:06;5.15;;;0.90;;
44328;SDS011;30039;51.462;6.892;2022-12-29T09:39:52;3.50;;;1.00;;
44328;SDS011;30039;51.462;6.892;2022-12-29T09:42:43;5.03;;;1.10;;
44328;SDS011;30039;51.462;6.892;2022-12-29T09:48:41;4.38;;;0.80;;
44328;SDS011;30039;51.462;6.892;2022-12-29T09:51:30;6.18;;;1.15;;
44328;SDS011;30039;51.462;6.892;2022-12-29T09:54:24;2.03;;;0.75;;
44328;SDS011;30039;51.462;6.892;2022-12-29T10:00:18;6.15;;;1.40;;
44328;SDS011;30039;51.462;6.892;2022-12-29T10:03:13;3.10;;;0.85;;
44328;SDS011;30039;51.462;6.892;2022-12-29T10:09:31;3.97;;;0.85;;
44328;SDS011;30039;51.462;6.892;2022-12-29T10:23:42;5.15;;;0.98;;
44328;SDS011;30039;51.462;6.892;2022-12-29T10:26:31;3.08;;;0.80;;
44328;SDS011;30039;51.462;6.892;2022-12-29T10:29:19;4.88;;;0.77;;
44328;SDS011;30039;51.462;6.892;2022-12-29T10:32:29;2.67;;;0.95;;
44328;SDS011;30039;51.462;6.892;2022-12-29T10:35:24;4.60;;;1.30;;
44328;SDS011;30039;51.462;6.892;2022-12-29T10:41:11;4.57;;;1.10;;
44328;SDS011;30039;51.462;6.892;2022-12-29T10:43:59;5.30;;;1.02;;
44328;SDS011;30039;51.462;6.892;2022-12-29T10:46:54;5.07;;;1.00;;
44328;SDS011;30039;51.462;6.892;2022-12-29T10:49:41;4.95;;;1.30;;
44328;SDS011;30039;51.462;6.892;2022-12-29T10:52:28;7.35;;;1.35;;
44328;SDS011;30039;51.462;6.892;2022-12-29T10:55:25;4.88;;;1.13;;
44328;SDS011;30039;51.462;6.892;2022-12-29T10:58:13;2.70;;;1.08;;
44328;SDS011;30039;51.462;6.892;2022-12-29T11:01:00;2.38;;;1.02;;
44328;SDS011;30039;51.462;6.892;2022-12-29T11:03:59;6.00;;;1.08;;
44328;SDS011;30039;51.462;6.892;2022-12-29T11:06:46;6.50;;;1.23;;
44328;SDS011;30039;51.462;6.892;2022-12-29T11:09:33;5.78;;;1.50;;
44328;SDS011;30039;51.462;6.892;2022-12-29T11:12:25;6.53;;;1.45;;
44328;SDS011;30039;51.462;6.892;2022-12-29T11:15:15;7.53;;;1.42;;
44328;SDS011;30039;51.462;6.892;2022-12-29T11:18:01;3.92;;;1.27;;
44328;SDS011;30039;51.462;6.892;2022-12-29T11:20:49;6.07;;;1.00;;
44328;SDS011;30039;51.462;6.892;2022-12-29T11:23:39;7.07;;;1.30;;
44328;SDS011;30039;51.462;6.892;2022-12-29T11:26:25;6.32;;;1.38;;
44328;SDS011;30039;51.462;6.892;2022-12-29T11:32:00;4.72;;;1.00;;
44328;SDS011;30039;51.462;6.892;2022-12-29T11:34:57;5.03;;;1.17;;
44328;SDS011;30039;51.462;6.892;2022-12-29T11:37:48;5.13;;;1.40;;
44328;SDS011;30039;51.462;6.892;2022-12-29T11:40:41;5.68;;;1.63;;
44328;SDS011;30039;51.462;6.892;2022-12-29T11:43:34;5.15;;;1.30;;
44328;SDS011;30039;51.462;6.892;2022-12-29T11:46:29;4.38;;;1.27;;
44328;SDS011;30039;51.462;6.892;2022-12-29T11:49:20;6.88;;;1.60;;
44328;SDS011;30039;51.462;6.892;2022-12-29T11:52:07;5.43;;;1.38;;
44328;SDS011;30039;51.462;6.892;2022-12-29T11:54:54;5.35;;;1.25;;
44328;SDS011;30039;51.462;6.892;2022-12-29T11:57:41;7.10;;;1.45;;
44328;SDS011;30039;51.462;6.892;2022-12-29T12:00:28;6.38;;;1.60;;
44328;SDS011;30039;51.462;6.892;2022-12-29T12:03:17;3.58;;;1.40;;
44328;SDS011;30039;51.462;6.892;2022-12-29T12:06:05;3.60;;;1.38;;
44328;SDS011;30039;51.462;6.892;2022-12-29T12:08:53;7.85;;;1.35;;
44328;SDS011;30039;51.462;6.892;2022-12-29T12:11:43;4.70;;;1.40;;
44328;SDS011;30039;51.462;6.892;2022-12-29T12:14:32;4.70;;;1.20;;
44328;SDS011;30039;51.462;6.892;2022-12-29T12:17:44;5.93;;;1.13;;
44328;SDS011;30039;51.462;6.892;2022-12-29T12:20:28;7.68;;;1.08;;
44328;SDS011;30039;51.462;6.892;2022-12-29T12:23:32;7.03;;;1.23;;
44328;SDS011;30039;51.462;6.892;2022-12-29T12:26:28;6.72;;;1.20;;
44328;SDS011;30039;51.462;6.892;2022-12-29T12:32:24;7.13;;;1.33;;
44328;SDS011;30039;51.462;6.892;2022-12-29T12:35:15;3.65;;;1.10;;
44328;SDS011;30039;51.462;6.892;2022-12-29T12:38:10;6.07;;;1.27;;
44328;SDS011;30039;51.462;6.892;2022-12-29T12:43:49;2.95;;;0.70;;
44328;SDS011;30039;51.462;6.892;2022-12-29T12:55:28;7.03;;;1.35;;
44328;SDS011;30039;51.462;6.892;2022-12-29T13:04:19;8.95;;;1.67;;
44328;SDS011;30039;51.462;6.892;2022-12-29T13:21:13;4.60;;;1.30;;
44328;SDS011;30039;51.462;6.892;2022-12-29T13:24:12;3.28;;;0.95;;
44328;SDS011;30039;51.462;6.892;2022-12-29T13:33:38;5.32;;;1.40;;
44328;SDS011;30039;51.462;6.892;2022-12-29T13:39:25;2.65;;;0.90;;
44328;SDS011;30039;51.462;6.892;2022-12-29T13:42:11;6.28;;;1.45;;
44328;SDS011;30039;51.462;6.892;2022-12-29T13:45:05;4.65;;;1.20;;
44328;SDS011;30039;51.462;6.892;2022-12-29T13:47:57;9.60;;;1.38;;
44328;SDS011;30039;51.462;6.892;2022-12-29T13:50:48;7.15;;;1.50;;
44328;SDS011;30039;51.462;6.892;2022-12-29T13:53:42;5.25;;;1.23;;
44328;SDS011;30039;51.462;6.892;2022-12-29T14:02:31;4.07;;;1.77;;
44328;SDS011;30039;51.462;6.892;2022-12-29T14:08:14;5.60;;;1.10;;
44328;SDS011;30039;51.462;6.892;2022-12-29T14:11:05;4.60;;;1.17;;
44328;SDS011;30039;51.462;6.892;2022-12-29T14:13:54;6.78;;;1.60;;
44328;SDS011;30039;51.462;6.892;2022-12-29T14:16:43;6.45;;;1.75;;
44328;SDS011;30039;51.462;6.892;2022-12-29T14:19:32;5.07;;;1.70;;
44328;SDS011;30039;51.462;6.892;2022-12-29T14:22:24;3.65;;;1.20;;
44328;SDS011;30039;51.462;6.892;2022-12-29T14:25:50;6.28;;;1.55;;
44328;SDS011;30039;51.462;6.892;2022-12-29T14:28:16;6.22;;;1.05;;
44328;SDS011;30039;51.462;6.892;2022-12-29T14:37:22;5.30;;;1.48;;
44328;SDS011;30039;51.462;6.892;2022-12-29T14:40:22;5.80;;;1.30;;
44328;SDS011;30039;51.462;6.892;2022-12-29T14:43:12;5.28;;;1.33;;
44328;SDS011;30039;51.462;6.892;2022-12-29T14:45:59;5.32;;;1.27;;
44328;SDS011;30039;51.462;6.892;2022-12-29T14:48:46;5.07;;;1.20;;
44328;SDS011;30039;51.462;6.892;2022-12-29T14:51:34;4.30;;;1.35;;
44328;SDS011;30039;51.462;6.892;2022-12-29T14:54:41;6.53;;;1.27;;
44328;SDS011;30039;51.462;6.892;2022-12-29T15:00:21;6.05;;;1.20;;
44328;SDS011;30039;51.462;6.892;2022-12-29T15:06:06;7.55;;;1.48;;
44328;SDS011;30039;51.462;6.892;2022-12-29T15:15:19;4.05;;;1.05;;
44328;SDS011;30039;51.462;6.892;2022-12-29T15:18:21;4.93;;;1.13;;
44328;SDS011;30039;51.462;6.892;2022-12-29T15:21:11;4.38;;;0.73;;
44328;SDS011;30039;51.462;6.892;2022-12-29T15:23:58;4.57;;;0.90;;
44328;SDS011;30039;51.462;6.892;2022-12-29T15:26:51;3.53;;;1.55;;
44328;SDS011;30039;51.462;6.892;2022-12-29T15:29:38;7.05;;;1.25;;
44328;SDS011;30039;51.462;6.892;2022-12-29T15:32:26;4.38;;;1.02;;
44328;SDS011;30039;51.462;6.892;2022-12-29T15:38:21;5.87;;;1.47;;
44328;SDS011;30039;51.462;6.892;2022-12-29T15:44:24;3.00;;;1.02;;
44328;SDS011;30039;51.462;6.892;2022-12-29T15:53:10;4.50;;;1.10;;
44328;SDS011;30039;51.462;6.892;2022-12-29T15:56:00;6.57;;;1.40;;
44328;SDS011;30039;51.462;6.892;2022-12-29T15:58:48;5.43;;;1.60;;
44328;SDS011;30039;51.462;6.892;2022-12-29T16:01:39;5.95;;;1.17;;
44328;SDS011;30039;51.462;6.892;2022-12-29T16:04:31;5.18;;;1.15;;
44328;SDS011;30039;51.462;6.892;2022-12-29T16:07:31;4.97;;;1.30;;
44328;SDS011;30039;51.462;6.892;2022-12-29T16:10:22;6.07;;;1.40;;
44328;SDS011;30039;51.462;6.892;2022-12-29T16:13:26;4.57;;;2.20;;
44328;SDS011;30039;51.462;6.892;2022-12-29T16:16:13;5.18;;;1.10;;
44328;SDS011;30039;51.462;6.892;2022-12-29T16:19:00;6.05;;;1.70;;
44328;SDS011;30039;51.462;6.892;2022-12-29T16:21:47;3.15;;;1.17;;
44328;SDS011;30039;51.462;6.892;2022-12-29T16:24:36;5.90;;;1.45;;
44328;SDS011;30039;51.462;6.892;2022-12-29T16:27:36;6.80;;;1.95;;
44328;SDS011;30039;51.462;6.892;2022-12-29T16:30:23;4.95;;;1.55;;
44328;SDS011;30039;51.462;6.892;2022-12-29T16:33:28;6.05;;;1.50;;
44328;SDS011;30039;51.462;6.892;2022-12-29T16:36:24;5.72;;;1.60;;
44328;SDS011;30039;51.462;6.892;2022-12-29T16:39:20;7.72;;;1.48;;
44328;SDS011;30039;51.462;6.892;2022-12-29T16:50:50;5.97;;;1.35;;
44328;SDS011;30039;51.462;6.892;2022-12-29T16:53:40;4.93;;;1.13;;
44328;SDS011;30039;51.462;6.892;2022-12-29T16:56:28;4.97;;;1.02;;
44328;SDS011;30039;51.462;6.892;2022-12-29T17:02:19;5.65;;;1.40;;
44328;SDS011;30039;51.462;6.892;2022-12-29T17:05:07;2.80;;;0.80;;
44328;SDS011;30039;51.462;6.892;2022-12-29T17:08:00;1.92;;;0.57;;
44328;SDS011;30039;51.462;6.892;2022-12-29T17:10:49;0.40;;;0.30;;
44328;SDS011;30039;51.462;6.892;2022-12-29T17:13:54;0.70;;;0.50;;
44328;SDS011;30039;51.462;6.892;2022-12-29T17:16:42;1.45;;;0.60;;
44328;SDS011;30039;51.462;6.892;2022-12-29T17:19:35;0.43;;;0.40;;
44328;SDS011;30039;51.462;6.892;2022-12-29T17:22:22;2.70;;;0.65;;
44328;SDS011;30039;51.462;6.892;2022-12-29T17:25:13;1.35;;;0.70;;
44328;SDS011;30039;51.462;6.892;2022-12-29T17:28:01;1.50;;;0.50;;
44328;SDS011;30039;51.462;6.892;2022-12-29T17:30:48;2.70;;;0.82;;
44328;SDS011;30039;51.462;6.892;2022-12-29T17:33:37;0.90;;;0.60;;
44328;SDS011;30039;51.462;6.892;2022-12-29T17:36:25;1.67;;;0.60;;
44328;SDS011;30039;51.462;6.892;2022-12-29T17:39:11;3.78;;;1.30;;
44328;SDS011;30039;51.462;6.892;2022-12-29T17:41:56;2.65;;;1.10;;
44328;SDS011;30039;51.462;6.892;2022-12-29T17:44:43;4.22;;;1.20;;
44328;SDS011;30039;51.462;6.892;2022-12-29T17:47:29;2.88;;;1.00;;
44328;SDS011;30039;51.462;6.892;2022-12-29T17:50:16;2.30;;;1.17;;
44328;SDS011;30039;51.462;6.892;2022-12-29T17:53:03;2.85;;;1.50;;
44328;SDS011;30039;51.462;6.892;2022-12-29T17:55:49;4.13;;;1.15;;
44328;SDS011;30039;51.462;6.892;2022-12-29T17:58:34;8.20;;;4.05;;
44328;SDS011;30039;51.462;6.892;2022-12-29T18:01:20;4.65;;;1.20;;
44328;SDS011;30039;51.462;6.892;2022-12-29T18:04:10;3.20;;;0.70;;
44328;SDS011;30039;51.462;6.892;2022-12-29T18:06:57;2.97;;;0.70;;
44328;SDS011;30039;51.462;6.892;2022-12-29T18:09:43;1.80;;;0.80;;
44328;SDS011;30039;51.462;6.892;2022-12-29T18:15:20;2.00;;;0.77;;
44328;SDS011;30039;51.462;6.892;2022-12-29T18:18:18;3.03;;;1.10;;
44328;SDS011;30039;51.462;6.892;2022-12-29T18:21:04;4.47;;;1.85;;
44328;SDS011;30039;51.462;6.892;2022-12-29T18:23:51;5.25;;;1.65;;
44328;SDS011;30039;51.462;6.892;2022-12-29T18:26:37;3.80;;;1.30;;
44328;SDS011;30039;51.462;6.892;2022-12-29T18:29:23;4.82;;;1.40;;
44328;SDS011;30039;51.462;6.892;2022-12-29T18:32:10;3.10;;;1.40;;
44328;SDS011;30039;51.462;6.892;2022-12-29T18:34:56;5.28;;;1.40;;
44328;SDS011;30039;51.462;6.892;2022-12-29T18:37:42;5.38;;;1.33;;
44328;SDS011;30039;51.462;6.892;2022-12-29T18:40:28;4.25;;;1.30;;
44328;SDS011;30039;51.462;6.892;2022-12-29T18:43:15;2.58;;;1.00;;
44328;SDS011;30039;51.462;6.892;2022-12-29T18:46:01;6.30;;;1.85;;
44328;SDS011;30039;51.462;6.892;2022-12-29T18:48:47;5.10;;;1.30;;
44328;SDS011;30039;51.462;6.892;2022-12-29T18:51:33;5.22;;;1.80;;
44328;SDS011;30039;51.462;6.892;2022-12-29T18:54:24;5.22;;;1.45;;
44328;SDS011;30039;51.462;6.892;2022-12-29T18:57:10;7.50;;;1.98;;
44328;SDS011;30039;51.462;6.892;2022-12-29T18:59:56;4.95;;;1.40;;
44328;SDS011;30039;51.462;6.892;2022-12-29T19:02:42;7.05;;;1.63;;
44328;SDS011;30039;51.462;6.892;2022-12-29T19:05:30;6.05;;;1.45;;
44328;SDS011;30039;51.462;6.892;2022-12-29T19:08:16;7.97;;;1.98;;
44328;SDS011;30039;51.462;6.892;2022-12-29T19:11:02;7.80;;;1.90;;
44328;SDS011;30039;51.462;6.892;2022-12-29T19:13:49;8.10;;;1.98;;
44328;SDS011;30039;51.462;6.892;2022-12-29T19:16:35;8.25;;;1.80;;
44328;SDS011;30039;51.462;6.892;2022-12-29T19:19:21;6.28;;;1.70;;
44328;SDS011;30039;51.462;6.892;2022-12-29T19:22:07;8.07;;;2.00;;
44328;SDS011;30039;51.462;6.892;2022-12-29T19:24:52;15.25;;;2.95;;
44328;SDS011;30039;51.462;6.892;2022-12-29T19:27:38;12.52;;;2.42;;
44328;SDS011;30039;51.462;6.892;2022-12-29T19:30:24;10.85;;;1.52;;
44328;SDS011;30039;51.462;6.892;2022-12-29T19:33:10;6.38;;;2.47;;
44328;SDS011;30039;51.462;6.892;2022-12-29T19:36:00;7.22;;;1.88;;
44328;SDS011;30039;51.462;6.892;2022-12-29T19:38:46;11.65;;;1.73;;
44328;SDS011;30039;51.462;6.892;2022-12-29T19:41:33;12.25;;;2.28;;